createdAt,value
2019-04-29T04:23:57.812Z,3.96
2019-04-29T04:24:53.483Z,3.82
2019-04-29T04:25:53.486Z,4.04
2019-04-29T04:26:53.475Z,4.00
2019-04-29T04:27:53.460Z,4.14
2019-04-29T04:28:53.442Z,4.15
2019-04-29T04:29:53.458Z,4.15
2019-04-29T04:30:53.443Z,4.28
2019-04-29T04:31:53.420Z,4.29
2019-04-29T04:32:53.434Z,4.16
2019-04-29T04:33:53.429Z,4.01
2019-04-29T04:34:53.351Z,3.98
2019-04-29T04:35:53.395Z,4.00
2019-04-29T04:36:53.333Z,4.08
2019-04-29T04:37:53.354Z,4.19
2019-04-29T04:38:53.350Z,4.28
2019-04-29T04:39:53.300Z,4.37
2019-04-29T04:40:53.291Z,4.51
2019-04-29T04:41:53.314Z,4.47
2019-04-29T04:42:53.266Z,4.52
2019-04-29T04:43:53.261Z,4.64
2019-04-29T04:44:53.246Z,4.58
2019-04-29T04:45:53.320Z,4.59
2019-04-29T04:46:53.228Z,4.67
2019-04-29T04:47:53.244Z,4.65
2019-04-29T04:48:53.224Z,4.72
2019-04-29T04:49:53.191Z,4.57
2019-04-29T04:50:53.187Z,4.50
2019-04-29T04:51:53.189Z,4.75
2019-04-29T04:52:53.177Z,4.65
2019-04-29T04:53:53.179Z,4.72
2019-04-29T04:54:53.136Z,4.57
2019-04-29T04:55:53.131Z,4.55
2019-04-29T04:56:53.125Z,4.59
2019-04-29T04:57:53.188Z,4.51
2019-04-29T04:58:53.112Z,4.58
2019-04-29T04:59:53.149Z,4.64
2019-04-29T05:00:53.086Z,4.86
2019-04-29T05:01:53.075Z,4.92
2019-04-29T05:02:53.073Z,5.01
2019-04-29T05:03:53.061Z,5.14
2019-04-29T05:04:53.063Z,5.17
2019-04-29T05:05:53.031Z,5.23
2019-04-29T05:06:53.062Z,5.46
2019-04-29T05:07:53.029Z,5.63
2019-04-29T05:08:53.094Z,5.85
2019-04-29T05:09:53.045Z,6.25
2019-04-29T05:10:53.029Z,6.71
2019-04-29T05:11:53.016Z,6.95
2019-04-29T05:12:53.013Z,7.07
2019-04-29T05:13:52.961Z,7.40
2019-04-29T05:14:52.955Z,7.89
2019-04-29T05:15:52.952Z,8.17
2019-04-29T05:16:52.969Z,8.51
2019-04-29T05:17:53.340Z,8.60
2019-04-29T05:18:52.945Z,8.81
2019-04-29T05:19:52.943Z,9.05
2019-04-29T05:20:52.928Z,9.28
2019-04-29T05:21:52.914Z,9.81
2019-04-29T05:22:52.898Z,9.97
2019-04-29T05:23:52.908Z,10.21
2019-04-29T05:24:52.909Z,10.53
2019-04-29T05:25:52.918Z,10.62
2019-04-29T05:26:52.896Z,10.30
2019-04-29T05:27:52.899Z,10.33
2019-04-29T05:28:52.907Z,10.32
2019-04-29T05:29:52.914Z,10.06
2019-04-29T05:30:52.873Z,9.71
2019-04-29T05:31:52.894Z,9.56
2019-04-29T05:32:52.899Z,9.68
2019-04-29T05:33:52.880Z,9.85
2019-04-29T05:34:55.002Z,10.39
2019-04-29T05:35:56.735Z,11.07
2019-04-29T05:36:52.876Z,12.39
2019-04-29T05:37:52.870Z,13.30
2019-04-29T05:38:52.836Z,14.31
2019-04-29T05:39:52.871Z,15.05
2019-04-29T05:40:52.854Z,15.79
2019-04-29T05:41:52.837Z,15.96
2019-04-29T05:42:54.060Z,15.54
2019-04-29T05:43:52.863Z,15.20
2019-04-29T05:44:52.835Z,15.05
2019-04-29T05:45:52.826Z,15.06
2019-04-29T05:46:52.837Z,14.21
2019-04-29T05:47:57.088Z,13.96
2019-04-29T05:48:52.847Z,13.89
2019-04-29T05:49:52.832Z,13.30
2019-04-29T05:50:53.225Z,12.77
2019-04-29T05:51:52.853Z,12.57
2019-04-29T05:52:52.828Z,12.37
2019-04-29T05:53:55.113Z,12.11
2019-04-29T05:54:52.822Z,11.96
2019-04-29T05:55:52.839Z,11.78
2019-04-29T05:56:52.824Z,11.80
2019-04-29T05:57:55.415Z,11.71
2019-04-29T05:58:52.834Z,11.44
2019-04-29T05:59:52.847Z,11.39
2019-04-29T06:00:52.819Z,11.25
2019-04-29T06:01:52.831Z,11.19
2019-04-29T06:02:52.816Z,11.44
2019-04-29T06:03:52.868Z,11.52
2019-04-29T06:04:54.024Z,11.43
2019-04-29T06:05:52.814Z,11.28
2019-04-29T06:06:52.800Z,11.25
2019-04-29T06:07:56.251Z,11.28
2019-04-29T06:08:52.794Z,11.24
2019-04-29T06:09:52.797Z,11.27
2019-04-29T06:10:52.800Z,11.28
2019-04-29T06:11:52.791Z,11.35
2019-04-29T06:12:52.802Z,11.43
2019-04-29T06:13:52.798Z,11.27
2019-04-29T06:14:52.782Z,11.16
2019-04-29T06:15:52.790Z,10.91
2019-04-29T06:16:53.056Z,10.65
2019-04-29T06:17:52.791Z,10.55
2019-04-29T06:18:59.669Z,10.51
2019-04-29T06:19:52.778Z,10.40
2019-04-29T06:20:52.757Z,10.32
2019-04-29T06:21:52.776Z,10.26
2019-04-29T06:22:52.766Z,10.18
2019-04-29T06:23:54.534Z,10.01
2019-04-29T06:24:52.742Z,10.03
2019-04-29T06:25:52.777Z,9.99
2019-04-29T06:26:52.731Z,9.81
2019-04-29T06:27:52.742Z,9.68
2019-04-29T06:28:52.735Z,9.70
2019-04-29T06:29:52.754Z,9.67
2019-04-29T06:30:52.760Z,9.63
2019-04-29T06:31:52.721Z,9.57
2019-04-29T06:32:52.743Z,9.48
2019-04-29T06:33:52.757Z,9.40
2019-04-29T06:34:52.765Z,9.30
2019-04-29T06:35:52.734Z,9.27
2019-04-29T06:36:52.718Z,9.18
2019-04-29T06:37:52.716Z,9.21
2019-04-29T06:38:52.700Z,9.23
2019-04-29T06:39:52.681Z,9.24
2019-04-29T06:40:52.689Z,9.24
2019-04-29T06:41:52.711Z,9.13
2019-04-29T06:42:55.230Z,9.06
2019-04-29T06:43:55.897Z,9.10
2019-04-29T06:44:52.668Z,9.21
2019-04-29T06:45:52.755Z,9.30
2019-04-29T06:46:54.520Z,9.35
2019-04-29T06:47:52.696Z,9.32
2019-04-29T06:48:52.622Z,9.27
2019-04-29T06:49:52.645Z,9.39
2019-04-29T06:50:52.654Z,9.45
2019-04-29T06:51:52.635Z,9.49
2019-04-29T06:52:52.632Z,9.48
2019-04-29T06:53:52.610Z,9.49
2019-04-29T06:54:52.585Z,9.35
2019-04-29T06:55:52.606Z,9.48
2019-04-29T06:56:52.668Z,9.57
2019-04-29T06:57:52.650Z,9.49
2019-04-29T06:58:52.577Z,9.46
2019-04-29T06:59:54.754Z,9.61
2019-04-29T07:00:55.749Z,9.73
2019-04-29T07:01:52.562Z,9.60
2019-04-29T07:02:52.539Z,9.60
2019-04-29T07:03:55.800Z,9.75
2019-04-29T07:04:52.591Z,9.61
2019-04-29T07:05:52.533Z,9.63
2019-04-29T07:06:57.543Z,9.68
2019-04-29T07:07:52.514Z,9.75
2019-04-29T07:08:52.541Z,9.64
2019-04-29T07:09:52.509Z,9.70
2019-04-29T07:10:55.822Z,9.76
2019-04-29T07:11:52.501Z,9.73
2019-04-29T07:12:52.503Z,9.63
2019-04-29T07:13:53.441Z,9.75
2019-04-29T07:14:52.477Z,9.67
2019-04-29T07:15:52.504Z,9.63
2019-04-29T07:16:52.457Z,9.64
2019-04-29T07:17:52.455Z,9.70
2019-04-29T07:18:53.827Z,9.58
2019-04-29T07:19:52.448Z,9.64
2019-04-29T07:20:52.536Z,9.78
2019-04-29T07:21:54.998Z,9.73
2019-04-29T07:22:52.472Z,9.70
2019-04-29T07:23:52.439Z,9.81
2019-04-29T07:24:52.417Z,9.79
2019-04-29T07:25:52.419Z,9.83
2019-04-29T07:26:52.437Z,9.76
2019-04-29T07:27:52.405Z,9.91
2019-04-29T07:28:55.072Z,9.86
2019-04-29T07:29:52.389Z,9.94
2019-04-29T07:31:01.764Z,9.97
2019-04-29T07:31:52.397Z,9.82
2019-04-29T07:32:52.405Z,9.78
2019-04-29T07:33:53.673Z,9.86
2019-04-29T07:34:52.351Z,9.73
2019-04-29T07:35:52.361Z,9.78
2019-04-29T07:36:53.186Z,9.78
2019-04-29T07:37:52.389Z,9.78
2019-04-29T07:38:56.283Z,9.85
2019-04-29T07:39:52.328Z,9.82
2019-04-29T07:40:52.349Z,9.79
2019-04-29T07:41:53.686Z,9.78
2019-04-29T07:42:52.320Z,9.88
2019-04-29T07:43:52.338Z,9.96
2019-04-29T07:44:52.803Z,9.89
2019-04-29T07:45:52.448Z,9.99
2019-04-29T07:46:56.608Z,9.99
2019-04-29T07:47:56.469Z,10.09
2019-04-29T07:49:01.223Z,10.04
2019-04-29T07:49:53.023Z,10.19
2019-04-29T07:50:52.287Z,10.19
2019-04-29T07:51:52.270Z,10.18
2019-04-29T07:52:52.260Z,10.24
2019-04-29T07:53:52.298Z,10.15
2019-04-29T07:54:56.078Z,10.19
2019-04-29T07:55:52.253Z,10.17
2019-04-29T07:56:52.244Z,10.26
2019-04-29T07:57:53.227Z,10.26
2019-04-29T07:58:52.239Z,10.33
2019-04-29T07:59:52.249Z,10.33
2019-04-29T08:00:52.233Z,10.37
2019-04-29T08:01:55.779Z,10.37
2019-04-29T08:02:52.208Z,10.39
2019-04-29T08:03:52.204Z,10.34
2019-04-29T08:04:52.202Z,10.30
2019-04-29T08:05:52.199Z,10.32
2019-04-29T08:06:52.219Z,10.26
2019-04-29T08:07:52.176Z,10.26
2019-04-29T08:08:55.570Z,10.40
2019-04-29T08:09:52.196Z,10.42
2019-04-29T08:10:56.431Z,10.46
2019-04-29T08:11:52.197Z,10.43
2019-04-29T08:12:52.154Z,10.40
2019-04-29T08:13:52.168Z,10.40
2019-04-29T08:14:53.469Z,10.40
2019-04-29T08:15:52.142Z,10.39
2019-04-29T08:16:52.158Z,10.56
2019-04-29T08:18:05.552Z,10.52
2019-04-29T08:18:53.607Z,10.52
2019-04-29T08:19:52.142Z,10.51
2019-04-29T08:20:52.149Z,10.51
2019-04-29T08:21:52.223Z,10.56
2019-04-29T08:22:52.111Z,10.52
2019-04-29T08:23:52.104Z,10.60
2019-04-29T08:24:52.269Z,10.56
2019-04-29T08:25:52.102Z,10.51
2019-04-29T08:26:52.094Z,10.33
2019-04-29T08:27:52.083Z,10.33
2019-04-29T08:28:52.901Z,10.40
2019-04-29T08:29:52.070Z,10.55
2019-04-29T08:30:52.066Z,10.43
2019-04-29T08:31:56.689Z,10.39
2019-04-29T08:32:52.071Z,10.56
2019-04-29T08:33:52.054Z,10.70
2019-04-29T08:34:53.692Z,10.70
2019-04-29T08:35:52.069Z,10.86
2019-04-29T08:36:52.045Z,10.86
2019-04-29T08:37:52.028Z,10.77
2019-04-29T08:38:52.023Z,10.92
2019-04-29T08:40:08.412Z,10.81
2019-04-29T08:40:52.023Z,10.92
2019-04-29T08:41:52.036Z,10.92
2019-04-29T08:42:52.003Z,10.91
2019-04-29T08:43:52.521Z,10.98
2019-04-29T08:44:54.754Z,10.95
2019-04-29T08:45:52.037Z,10.99
2019-04-29T08:46:52.910Z,10.88
2019-04-29T08:47:52.026Z,10.81
2019-04-29T08:48:51.996Z,11.01
2019-04-29T08:49:51.981Z,11.02
2019-04-29T08:50:52.001Z,10.91
2019-04-29T08:51:51.997Z,10.70
2019-04-29T08:52:51.992Z,10.78
2019-04-29T08:53:51.955Z,10.73
2019-04-29T08:54:55.482Z,10.91
2019-04-29T08:55:51.971Z,11.13
2019-04-29T08:57:04.335Z,11.17
2019-04-29T08:57:51.947Z,11.28
2019-04-29T08:58:51.931Z,11.32
2019-04-29T08:59:51.940Z,11.31
2019-04-29T09:00:55.678Z,11.36
2019-04-29T09:01:51.950Z,11.38
2019-04-29T09:02:51.910Z,11.46
2019-04-29T09:03:53.778Z,11.34
2019-04-29T09:04:53.752Z,11.46
2019-04-29T09:06:04.266Z,11.29
2019-04-29T09:06:51.904Z,11.41
2019-04-29T09:07:52.467Z,11.34
2019-04-29T09:08:55.509Z,11.50
2019-04-29T09:09:56.145Z,11.57
2019-04-29T09:10:51.887Z,11.64
2019-04-29T09:11:51.924Z,11.54
2019-04-29T09:12:51.901Z,11.62
2019-04-29T09:13:51.864Z,11.75
2019-04-29T09:14:51.877Z,11.85
2019-04-29T09:15:51.875Z,11.70
2019-04-29T09:16:51.871Z,11.70
2019-04-29T09:17:51.862Z,11.68
2019-04-29T09:18:51.849Z,11.80
2019-04-29T09:19:51.851Z,11.80
2019-04-29T09:20:52.022Z,11.78
2019-04-29T09:21:51.834Z,11.75
2019-04-29T09:22:51.869Z,11.86
2019-04-29T09:23:51.828Z,11.90
2019-04-29T09:24:51.827Z,11.99
2019-04-29T09:26:02.454Z,12.01
2019-04-29T09:26:51.828Z,11.96
2019-04-29T09:27:51.848Z,11.93
2019-04-29T09:28:51.812Z,12.01
2019-04-29T09:29:54.217Z,12.02
2019-04-29T09:30:51.826Z,12.11
2019-04-29T09:31:51.830Z,12.13
2019-04-29T09:32:51.795Z,12.09
2019-04-29T09:33:59.717Z,12.12
2019-04-29T09:34:55.558Z,12.06
2019-04-29T09:35:51.787Z,12.11
2019-04-29T09:36:51.796Z,11.99
2019-04-29T09:37:53.882Z,12.11
2019-04-29T09:38:51.795Z,12.06
2019-04-29T09:39:51.763Z,12.13
2019-04-29T09:40:54.460Z,11.99
2019-04-29T09:41:51.759Z,11.94
2019-04-29T09:42:51.890Z,11.80
2019-04-29T09:43:51.750Z,11.77
2019-04-29T09:44:51.745Z,11.82
2019-04-29T09:45:53.935Z,11.96
2019-04-29T09:46:51.757Z,11.82
2019-04-29T09:47:51.733Z,11.85
2019-04-29T09:48:51.722Z,11.97
2019-04-29T09:49:51.721Z,12.13
2019-04-29T09:50:51.724Z,12.11
2019-04-29T09:51:51.710Z,12.12
2019-04-29T09:52:51.757Z,12.15
2019-04-29T09:53:51.709Z,12.27
2019-04-29T09:54:51.712Z,12.19
2019-04-29T09:55:51.724Z,12.13
2019-04-29T09:56:51.695Z,12.23
2019-04-29T09:57:51.706Z,12.34
2019-04-29T09:58:51.690Z,12.20
2019-04-29T09:59:51.682Z,12.13
2019-04-29T10:00:51.689Z,12.26
2019-04-29T10:01:55.105Z,12.45
2019-04-29T10:02:51.673Z,12.23
2019-04-29T10:03:51.691Z,12.34
2019-04-29T10:04:56.932Z,12.59
2019-04-29T10:05:51.692Z,12.66
2019-04-29T10:06:51.662Z,12.49
2019-04-29T10:07:51.687Z,12.41
2019-04-29T10:08:51.661Z,12.59
2019-04-29T10:09:57.305Z,12.64
2019-04-29T10:10:51.651Z,12.67
2019-04-29T10:11:51.643Z,12.70
2019-04-29T10:12:53.910Z,12.64
2019-04-29T10:13:51.646Z,12.52
2019-04-29T10:14:51.706Z,12.41
2019-04-29T10:15:51.659Z,12.34
2019-04-29T10:16:51.671Z,12.67
2019-04-29T10:17:55.515Z,12.78
2019-04-29T10:18:51.618Z,12.81
2019-04-29T10:19:51.618Z,13.00
2019-04-29T10:20:51.643Z,12.66
2019-04-29T10:21:51.606Z,12.44
2019-04-29T10:22:53.864Z,12.24
2019-04-29T10:23:51.608Z,12.44
2019-04-29T10:24:51.612Z,12.57
2019-04-29T10:25:51.620Z,12.70
2019-04-29T10:26:51.633Z,12.79
2019-04-29T10:27:51.619Z,12.93
2019-04-29T10:28:51.640Z,13.04
2019-04-29T10:29:55.367Z,12.95
2019-04-29T10:30:51.586Z,13.11
2019-04-29T10:31:51.604Z,13.17
2019-04-29T10:32:51.581Z,13.25
2019-04-29T10:33:55.016Z,13.27
2019-04-29T10:34:51.604Z,13.36
2019-04-29T10:35:51.568Z,13.24
2019-04-29T10:36:52.541Z,13.24
2019-04-29T10:37:51.558Z,13.36
2019-04-29T10:38:51.563Z,13.47
2019-04-29T10:39:51.552Z,13.52
2019-04-29T10:40:51.548Z,13.38
2019-04-29T10:41:51.577Z,13.21
2019-04-29T10:42:51.556Z,13.32
2019-04-29T10:43:53.662Z,13.27
2019-04-29T10:44:51.559Z,13.29
2019-04-29T10:45:51.547Z,13.21
2019-04-29T10:46:51.565Z,13.29
2019-04-29T10:47:51.555Z,13.38
2019-04-29T10:48:51.563Z,13.38
2019-04-29T10:49:51.531Z,13.51
2019-04-29T10:50:52.038Z,13.62
2019-04-29T10:51:51.568Z,13.56
2019-04-29T10:52:51.531Z,13.61
2019-04-29T10:53:52.690Z,13.62
2019-04-29T10:54:55.256Z,13.56
2019-04-29T10:55:51.522Z,13.59
2019-04-29T10:56:51.544Z,13.52
2019-04-29T10:57:51.550Z,13.59
2019-04-29T10:58:51.504Z,13.59
2019-04-29T10:59:51.542Z,13.62
2019-04-29T11:00:52.737Z,13.84
2019-04-29T11:02:01.088Z,13.74
2019-04-29T11:02:51.506Z,13.76
2019-04-29T11:03:51.529Z,13.54
2019-04-29T11:04:51.492Z,13.51
2019-04-29T11:06:00.315Z,13.65
2019-04-29T11:06:51.499Z,13.63
2019-04-29T11:07:51.492Z,13.80
2019-04-29T11:08:51.484Z,13.98
2019-04-29T11:09:52.652Z,13.98
2019-04-29T11:10:51.505Z,13.96
2019-04-29T11:11:51.472Z,13.73
2019-04-29T11:12:51.540Z,13.76
2019-04-29T11:13:51.561Z,13.73
2019-04-29T11:14:51.505Z,13.69
2019-04-29T11:15:51.467Z,13.62
2019-04-29T11:16:51.533Z,13.88
2019-04-29T11:17:58.862Z,14.01
2019-04-29T11:18:55.023Z,13.99
2019-04-29T11:19:51.505Z,13.95
2019-04-29T11:20:53.639Z,13.70
2019-04-29T11:21:51.503Z,13.71
2019-04-29T11:22:51.454Z,13.84
2019-04-29T11:23:54.898Z,13.74
2019-04-29T11:24:51.466Z,13.80
2019-04-29T11:25:51.619Z,13.76
2019-04-29T11:26:51.487Z,13.87
2019-04-29T11:27:51.457Z,13.96
2019-04-29T11:28:52.384Z,14.07
2019-04-29T11:29:51.451Z,14.17
2019-04-29T11:30:51.444Z,14.02
2019-04-29T11:31:54.188Z,14.06
2019-04-29T11:32:51.459Z,14.20
2019-04-29T11:33:51.488Z,14.27
2019-04-29T11:34:53.508Z,14.34
2019-04-29T11:35:51.476Z,14.12
2019-04-29T11:36:51.448Z,14.19
2019-04-29T11:37:55.381Z,14.14
2019-04-29T11:38:51.446Z,14.27
2019-04-29T11:39:51.807Z,14.24
2019-04-29T11:40:51.422Z,14.34
2019-04-29T11:41:54.568Z,14.19
2019-04-29T11:42:51.425Z,14.20
2019-04-29T11:43:52.815Z,14.32
2019-04-29T11:44:51.424Z,14.20
2019-04-29T11:45:51.406Z,14.13
2019-04-29T11:46:51.404Z,13.99
2019-04-29T11:47:51.412Z,14.10
2019-04-29T11:48:51.407Z,14.07
2019-04-29T11:49:51.411Z,14.19
2019-04-29T11:50:54.714Z,14.17
2019-04-29T11:52:08.732Z,14.31
2019-04-29T11:52:51.403Z,14.38
2019-04-29T11:53:51.427Z,14.37
2019-04-29T11:54:51.403Z,14.38
2019-04-29T11:55:52.574Z,14.16
2019-04-29T11:56:51.447Z,14.37
2019-04-29T11:57:51.404Z,14.38
2019-04-29T11:58:51.385Z,14.53
2019-04-29T11:59:51.386Z,14.29
2019-04-29T12:00:52.067Z,14.27
2019-04-29T12:01:53.312Z,14.24
2019-04-29T12:02:51.384Z,14.35
2019-04-29T12:03:56.271Z,14.13
2019-04-29T12:04:51.378Z,14.24
2019-04-29T12:05:51.382Z,14.42
2019-04-29T12:06:56.106Z,14.38
2019-04-29T12:07:51.385Z,14.38
2019-04-29T12:08:53.221Z,14.50
2019-04-29T12:09:51.368Z,14.61
2019-04-29T12:11:06.059Z,14.74
2019-04-29T12:11:51.373Z,14.54
2019-04-29T12:12:51.444Z,14.62
2019-04-29T12:13:51.388Z,14.56
2019-04-29T12:14:51.368Z,14.57
2019-04-29T12:15:51.374Z,14.47
2019-04-29T12:16:54.576Z,14.57
2019-04-29T12:17:51.382Z,14.31
2019-04-29T12:18:51.361Z,14.34
2019-04-29T12:19:51.402Z,14.44
2019-04-29T12:20:51.411Z,14.60
2019-04-29T12:21:51.406Z,14.65
2019-04-29T12:22:51.386Z,14.75
2019-04-29T12:23:52.030Z,14.80
2019-04-29T12:24:51.348Z,14.72
2019-04-29T12:25:51.393Z,14.65
2019-04-29T12:26:51.346Z,14.64
2019-04-29T12:28:01.166Z,14.81
2019-04-29T12:28:51.357Z,14.69
2019-04-29T12:29:54.287Z,14.84
2019-04-29T12:30:51.362Z,14.57
2019-04-29T12:31:51.417Z,14.62
2019-04-29T12:32:51.355Z,14.62
2019-04-29T12:33:51.360Z,14.56
2019-04-29T12:34:51.378Z,14.50
2019-04-29T12:35:52.334Z,14.81
2019-04-29T12:36:56.206Z,14.83
2019-04-29T12:37:51.314Z,14.69
2019-04-29T12:38:51.578Z,14.72
2019-04-29T12:39:51.316Z,14.80
2019-04-29T12:40:55.026Z,14.80
2019-04-29T12:41:51.322Z,14.81
2019-04-29T12:42:51.346Z,14.81
2019-04-29T12:43:53.552Z,14.90
2019-04-29T12:44:51.328Z,14.90
2019-04-29T12:45:53.722Z,14.94
2019-04-29T12:46:51.323Z,14.83
2019-04-29T12:47:51.313Z,14.78
2019-04-29T12:48:51.309Z,14.84
2019-04-29T12:49:51.301Z,14.81
2019-04-29T12:50:57.376Z,14.86
2019-04-29T12:51:51.304Z,14.86
2019-04-29T12:52:51.366Z,14.94
2019-04-29T12:54:00.073Z,14.78
2019-04-29T12:55:55.964Z,14.83
2019-04-29T12:56:55.768Z,14.87
2019-04-29T12:57:55.796Z,14.98
2019-04-29T12:58:59.608Z,15.02
2019-04-29T12:59:55.787Z,15.05
2019-04-29T13:00:59.952Z,15.12
2019-04-29T13:01:58.568Z,15.20
2019-04-29T13:02:59.835Z,15.19
2019-04-29T13:03:55.763Z,15.01
2019-04-29T13:04:55.763Z,14.87
2019-04-29T13:05:58.261Z,14.90
2019-04-29T13:06:55.806Z,14.98
2019-04-29T13:07:55.769Z,15.06
2019-04-29T13:08:55.801Z,15.06
2019-04-29T13:09:55.759Z,15.09
2019-04-29T13:10:55.756Z,15.09
2019-04-29T13:12:11.149Z,15.19
2019-04-29T13:12:58.122Z,15.19
2019-04-29T13:13:58.274Z,15.21
2019-04-29T13:15:02.743Z,15.05
2019-04-29T13:15:55.761Z,14.99
2019-04-29T13:16:57.003Z,14.91
2019-04-29T13:18:03.064Z,14.75
2019-04-29T13:19:00.069Z,14.69
2019-04-29T13:20:02.254Z,14.83
2019-04-29T13:21:09.125Z,14.95
2019-04-29T13:21:55.745Z,15.05
2019-04-29T13:23:00.549Z,15.19
2019-04-29T13:24:12.550Z,15.08
2019-04-29T13:24:55.750Z,15.17
2019-04-29T13:25:56.394Z,15.23
2019-04-29T13:26:55.751Z,15.28
2019-04-29T13:28:03.681Z,15.31
2019-04-29T13:29:01.160Z,15.27
2019-04-29T13:29:55.759Z,15.24
2019-04-29T13:30:56.935Z,15.41
2019-04-29T13:31:55.788Z,15.28
2019-04-29T13:32:55.764Z,15.33
2019-04-29T13:33:55.777Z,15.28
2019-04-29T13:34:55.764Z,15.30
2019-04-29T13:35:55.752Z,15.31
2019-04-29T13:37:06.470Z,15.28
2019-04-29T13:37:55.736Z,15.24
2019-04-29T13:38:55.767Z,15.36
2019-04-29T13:39:55.891Z,15.24
2019-04-29T13:41:11.794Z,15.12
2019-04-29T13:41:58.023Z,15.13
2019-04-29T13:42:55.758Z,15.26
2019-04-29T13:44:04.421Z,15.31
2019-04-29T13:45:07.444Z,15.27
2019-04-29T13:45:55.970Z,15.30
2019-04-29T13:46:55.736Z,15.13
2019-04-29T13:47:55.744Z,15.11
2019-04-29T13:48:59.775Z,15.09
2019-04-29T13:49:55.754Z,15.09
2019-04-29T13:50:55.725Z,15.17
2019-04-29T13:51:55.730Z,15.23
2019-04-29T13:52:55.739Z,15.21
2019-04-29T13:53:59.837Z,14.94
2019-04-29T13:54:55.735Z,14.88
2019-04-29T13:56:10.302Z,14.80
2019-04-29T13:56:56.842Z,14.87
2019-04-29T13:57:55.719Z,14.88
2019-04-29T13:58:58.630Z,14.88
2019-04-29T13:59:55.707Z,14.94
2019-04-29T14:00:59.436Z,14.83
2019-04-29T14:02:01.243Z,14.81
2019-04-29T14:02:59.139Z,14.81
2019-04-29T14:03:55.723Z,14.81
2019-04-29T14:04:56.018Z,14.83
2019-04-29T14:06:04.007Z,14.81
2019-04-29T14:06:57.348Z,14.94
2019-04-29T14:07:55.727Z,14.84
2019-04-29T14:08:55.707Z,14.94
2019-04-29T14:09:55.708Z,15.01
2019-04-29T14:10:57.283Z,15.17
2019-04-29T14:12:04.346Z,15.20
2019-04-29T14:13:55.740Z,15.21
2019-04-29T14:14:58.495Z,15.24
2019-04-29T14:15:55.727Z,15.31
2019-04-29T14:17:17.026Z,15.11
2019-04-29T14:17:55.690Z,15.12
2019-04-29T14:18:53.585Z,15.23
2019-04-29T14:18:55.708Z,15.19
2019-04-29T14:19:57.075Z,15.02
2019-04-29T14:20:55.949Z,15.03
2019-04-29T14:21:55.685Z,15.23
2019-04-29T14:22:55.673Z,14.93
2019-04-29T14:23:55.994Z,15.03
2019-04-29T14:24:55.705Z,15.02
2019-04-29T14:25:55.699Z,15.09
2019-04-29T14:26:55.708Z,15.05
2019-04-29T14:27:55.684Z,15.09
2019-04-29T14:28:55.707Z,15.05
2019-04-29T14:29:55.674Z,15.06
2019-04-29T14:30:56.035Z,15.20
2019-04-29T14:31:59.196Z,15.23
2019-04-29T14:32:55.710Z,15.23
2019-04-29T14:33:59.818Z,15.15
2019-04-29T14:34:55.662Z,15.24
2019-04-29T14:35:55.709Z,15.28
2019-04-29T14:37:10.521Z,15.28
2019-04-29T14:38:00.064Z,15.38
2019-04-29T14:38:55.675Z,15.28
2019-04-29T14:39:55.670Z,15.19
2019-04-29T14:40:55.696Z,15.06
2019-04-29T14:41:56.478Z,15.12
2019-04-29T14:42:57.850Z,15.02
2019-04-29T14:43:57.023Z,15.12
2019-04-29T14:44:55.655Z,15.08
2019-04-29T14:45:55.651Z,15.08
2019-04-29T14:46:56.219Z,15.23
2019-04-29T14:47:55.645Z,15.24
2019-04-29T14:48:59.574Z,15.36
2019-04-29T14:49:55.646Z,15.36
2019-04-29T14:50:56.140Z,15.33
2019-04-29T14:51:55.647Z,15.35
2019-04-29T14:52:55.686Z,15.27
2019-04-29T14:53:57.071Z,15.33
2019-04-29T14:54:55.698Z,15.39
2019-04-29T14:55:55.676Z,15.49
2019-04-29T14:56:55.650Z,15.35
2019-04-29T14:57:55.728Z,15.28
2019-04-29T14:59:06.672Z,15.38
2019-04-29T14:59:55.765Z,15.30
2019-04-29T15:00:55.650Z,15.30
2019-04-29T15:01:55.671Z,15.39
2019-04-29T15:03:00.076Z,15.28
2019-04-29T15:03:55.667Z,15.23
2019-04-29T15:04:55.699Z,15.27
2019-04-29T15:05:55.694Z,15.30
2019-04-29T15:06:55.630Z,15.28
2019-04-29T15:07:55.673Z,15.26
2019-04-29T15:08:55.701Z,15.30
2019-04-29T15:09:57.320Z,15.09
2019-04-29T15:10:55.721Z,15.05
2019-04-29T15:11:58.577Z,15.08
2019-04-29T15:13:01.402Z,15.02
2019-04-29T15:13:55.891Z,15.01
2019-04-29T15:14:59.242Z,15.09
2019-04-29T15:16:04.314Z,15.15
2019-04-29T15:16:55.630Z,15.15
2019-04-29T15:17:55.704Z,15.21
2019-04-29T15:18:55.632Z,15.19
2019-04-29T15:19:56.514Z,15.31
2019-04-29T15:20:56.531Z,15.38
2019-04-29T15:21:55.605Z,15.35
2019-04-29T15:22:55.595Z,15.23
2019-04-29T15:23:55.610Z,15.21
2019-04-29T15:24:55.629Z,15.02
2019-04-29T15:25:55.618Z,15.09
2019-04-29T15:26:55.593Z,15.11
2019-04-29T15:27:55.622Z,15.27
2019-04-29T15:28:55.628Z,15.23
2019-04-29T15:29:55.583Z,15.12
2019-04-29T15:30:55.583Z,15.24
2019-04-29T15:31:55.611Z,15.17
2019-04-29T15:32:58.059Z,15.11
2019-04-29T15:33:55.584Z,15.08
2019-04-29T15:34:55.606Z,15.11
2019-04-29T15:35:59.932Z,15.24
2019-04-29T15:36:55.584Z,15.24
2019-04-29T15:39:08.568Z,15.35
2019-04-29T15:39:58.365Z,15.31
2019-04-29T15:40:55.583Z,15.24
2019-04-29T15:41:55.822Z,15.41
2019-04-29T15:42:55.567Z,15.28
2019-04-29T15:44:07.096Z,15.27
2019-04-29T15:44:56.914Z,15.23
2019-04-29T15:45:55.596Z,15.20
2019-04-29T15:46:55.570Z,15.35
2019-04-29T15:47:55.567Z,15.28
2019-04-29T15:48:55.562Z,15.24
2019-04-29T15:50:00.383Z,15.26
2019-04-29T15:50:55.561Z,15.23
2019-04-29T15:51:55.560Z,15.15
2019-04-29T15:52:58.782Z,15.11
2019-04-29T15:53:55.553Z,15.03
2019-04-29T15:54:55.548Z,14.99
2019-04-29T15:56:06.725Z,15.05
2019-04-29T15:56:55.876Z,14.84
2019-04-29T15:57:55.571Z,14.88
2019-04-29T15:58:59.730Z,14.94
2019-04-29T16:01:11.537Z,15.05
2019-04-29T16:01:59.152Z,15.20
2019-04-29T16:02:55.610Z,15.02
2019-04-29T16:03:56.908Z,15.03
2019-04-29T16:04:55.556Z,14.94
2019-04-29T16:06:19.221Z,14.94
2019-04-29T16:06:55.535Z,14.98
2019-04-29T16:07:57.122Z,14.83
2019-04-29T16:08:58.865Z,14.78
2019-04-29T16:09:55.528Z,14.75
2019-04-29T16:10:57.822Z,14.80
2019-04-29T16:11:55.529Z,14.80
2019-04-29T16:12:55.559Z,14.74
2019-04-29T16:14:09.077Z,14.83
2019-04-29T16:14:55.510Z,14.84
2019-04-29T16:15:55.512Z,14.90
2019-04-29T16:16:55.537Z,14.90
2019-04-29T16:17:55.518Z,15.01
2019-04-29T16:19:07.310Z,14.90
2019-04-29T16:19:55.584Z,14.80
2019-04-29T16:20:55.553Z,14.78
2019-04-29T16:21:55.525Z,14.78
2019-04-29T16:23:00.530Z,14.84
2019-04-29T16:23:57.690Z,14.81
2019-04-29T16:24:59.379Z,14.78
2019-04-29T16:25:55.503Z,14.68
2019-04-29T16:26:55.489Z,14.52
2019-04-29T16:27:55.520Z,14.61
2019-04-29T16:28:55.501Z,14.50
2019-04-29T16:29:55.548Z,14.49
2019-04-29T16:30:55.506Z,14.52
2019-04-29T16:32:02.391Z,14.35
2019-04-29T16:32:55.549Z,14.32
2019-04-29T16:33:55.832Z,14.31
2019-04-29T16:34:55.470Z,14.37
2019-04-29T16:35:57.668Z,14.31
2019-04-29T16:36:55.513Z,14.38
2019-04-29T16:37:55.488Z,14.32
2019-04-29T16:38:55.524Z,14.21
2019-04-29T16:39:59.745Z,14.27
2019-04-29T16:40:57.279Z,14.10
2019-04-29T16:41:58.121Z,14.10
2019-04-29T16:42:55.481Z,14.04
2019-04-29T16:43:55.447Z,14.02
2019-04-29T16:44:55.433Z,13.96
2019-04-29T16:45:55.439Z,14.10
2019-04-29T16:46:55.436Z,14.06
2019-04-29T16:47:55.429Z,13.99
2019-04-29T16:48:55.431Z,13.98
2019-04-29T16:49:57.521Z,14.02
2019-04-29T16:50:55.458Z,14.01
2019-04-29T16:51:55.849Z,14.04
2019-04-29T16:52:55.468Z,13.99
2019-04-29T16:53:55.411Z,13.95
2019-04-29T16:54:59.085Z,13.98
2019-04-29T16:55:55.406Z,13.89
2019-04-29T16:56:55.400Z,13.80
2019-04-29T16:57:59.782Z,13.96
2019-04-29T16:58:55.397Z,13.95
2019-04-29T16:59:55.409Z,13.96
2019-04-29T17:00:55.517Z,13.84
2019-04-29T17:01:55.428Z,13.80
2019-04-29T17:02:55.425Z,13.76
2019-04-29T17:03:55.435Z,13.71
2019-04-29T17:04:55.381Z,13.83
2019-04-29T17:05:55.370Z,13.70
2019-04-29T17:07:11.779Z,13.76
2019-04-29T17:07:55.364Z,13.58
2019-04-29T17:09:02.942Z,13.54
2019-04-29T17:09:55.396Z,13.54
2019-04-29T17:10:55.398Z,13.70
2019-04-29T17:11:56.053Z,13.67
2019-04-29T17:12:55.402Z,13.55
2019-04-29T17:13:55.345Z,13.67
2019-04-29T17:15:04.145Z,13.74
2019-04-29T17:15:55.338Z,13.63
2019-04-29T17:16:55.353Z,13.63
2019-04-29T17:17:55.327Z,13.55
2019-04-29T17:18:55.337Z,13.49
2019-04-29T17:19:55.330Z,13.27
2019-04-29T17:21:04.697Z,13.47
2019-04-29T17:22:23.718Z,13.38
2019-04-29T17:22:55.345Z,13.33
2019-04-29T17:23:55.304Z,13.32